createdAt,value
2023-04-15T00:03:47.687Z,80.75
2023-04-15T00:08:51.119Z,80.93
2023-04-15T00:13:54.621Z,81.98
2023-04-15T00:18:58.178Z,83.34
2023-04-15T00:24:02.062Z,83.65
2023-04-15T00:29:05.767Z,84.14
2023-04-15T00:34:09.747Z,85.22
2023-04-15T00:39:13.082Z,86.55
2023-04-15T00:44:16.563Z,87.51
2023-04-15T00:49:20.474Z,87.99
2023-04-15T00:54:23.824Z,90.06
2023-04-15T00:59:27.872Z,90.48
2023-04-15T01:04:32.129Z,91.24
2023-04-15T01:09:35.740Z,90.74
2023-04-15T01:14:39.145Z,91.02
2023-04-15T01:19:42.502Z,91.62
2023-04-15T01:25:02.423Z,92.95
2023-04-15T01:30:09.199Z,93.90
2023-04-15T01:35:12.635Z,94.24
2023-04-15T01:40:36.322Z,95.52
2023-04-15T01:45:39.652Z,96.58
2023-04-15T01:50:43.817Z,97.67
2023-04-15T01:55:47.593Z,98.40
2023-04-15T02:00:51.635Z,99.45
2023-04-15T02:05:55.313Z,99.80
2023-04-15T02:11:01.416Z,100.00
2023-04-15T02:16:21.448Z,100.00
2023-04-15T02:21:26.871Z,100.00
2023-04-15T02:27:12.517Z,100.00
2023-04-15T02:32:20.325Z,100.00
2023-04-15T02:37:24.838Z,100.00
2023-04-15T02:42:28.918Z,100.00
2023-04-15T02:47:32.263Z,100.00
2023-04-15T02:52:35.899Z,100.00
2023-04-15T02:57:40.995Z,100.00
2023-04-15T03:02:47.167Z,100.00
2023-04-15T03:07:51.356Z,100.00
2023-04-15T03:12:54.853Z,100.00
2023-04-15T03:17:58.317Z,100.00
2023-04-15T03:23:01.667Z,100.00
2023-04-15T03:28:05.797Z,100.00
2023-04-15T03:33:09.575Z,100.00
2023-04-15T03:38:13.440Z,100.00
2023-04-15T03:43:17.277Z,100.00
2023-04-15T03:48:23.966Z,100.00
2023-04-15T03:53:27.324Z,100.00
2023-04-15T03:58:30.872Z,100.00
2023-04-15T04:03:34.611Z,100.00
2023-04-15T04:08:38.946Z,100.00
2023-04-15T04:13:42.213Z,100.00
2023-04-15T04:18:45.506Z,100.00
2023-04-15T04:23:49.061Z,100.00
2023-04-15T04:28:54.609Z,100.00
2023-04-15T04:33:58.168Z,100.00
2023-04-15T04:39:03.842Z,100.00
2023-04-15T04:44:07.854Z,100.00
2023-04-15T04:49:13.599Z,100.00
2023-04-15T04:54:17.740Z,100.00
2023-04-15T04:59:21.461Z,100.00
2023-04-15T05:04:24.973Z,100.00
2023-04-15T05:09:39.510Z,100.00
2023-04-15T05:14:43.165Z,100.00
2023-04-15T05:19:46.611Z,100.00
2023-04-15T05:24:55.383Z,100.00
2023-04-15T05:29:58.785Z,100.00
2023-04-15T05:35:12.173Z,100.00
2023-04-15T05:40:17.991Z,100.00
2023-04-15T05:45:23.523Z,100.00
2023-04-15T05:50:27.133Z,100.00
2023-04-15T05:55:50.964Z,100.00
2023-04-15T06:00:54.453Z,100.00
2023-04-15T06:05:57.871Z,100.00
2023-04-15T06:11:04.297Z,100.00
2023-04-15T06:16:12.082Z,100.00
2023-04-15T06:21:16.223Z,100.00
2023-04-15T06:26:40.050Z,100.00
2023-04-15T06:32:03.842Z,100.00
2023-04-15T06:37:18.524Z,100.00
2023-04-15T06:42:22.198Z,100.00
2023-04-15T06:47:28.977Z,100.00
2023-04-15T06:52:32.380Z,100.00
2023-04-15T06:57:36.188Z,100.00
2023-04-15T07:02:40.054Z,100.00
2023-04-15T07:08:06.931Z,100.00
2023-04-15T07:13:13.874Z,100.00
2023-04-15T07:18:38.581Z,100.00
2023-04-15T07:23:42.905Z,100.00
2023-04-15T07:28:49.569Z,100.00
2023-04-15T07:33:53.522Z,100.00
2023-04-15T07:38:57.895Z,100.00
2023-04-15T07:44:01.294Z,100.00
2023-04-15T07:49:05.187Z,100.00
2023-04-15T07:54:11.901Z,100.00
2023-04-15T07:59:18.074Z,100.00
2023-04-15T08:04:21.564Z,100.00
2023-04-15T08:09:28.267Z,100.00
2023-04-15T08:14:32.040Z,100.00
2023-04-15T08:19:35.812Z,100.00
2023-04-15T08:24:39.410Z,100.00
2023-04-15T08:29:43.162Z,100.00
2023-04-15T08:34:49.445Z,100.00
2023-04-15T08:39:52.818Z,100.00
2023-04-15T08:45:01.618Z,100.00
2023-04-15T08:50:07.810Z,100.00
2023-04-15T08:55:13.868Z,100.00
2023-04-15T09:00:18.228Z,100.00
2023-04-15T09:05:23.144Z,100.00
2023-04-15T09:10:26.864Z,100.00
2023-04-15T09:15:33.114Z,100.00
2023-04-15T09:20:42.466Z,100.00
2023-04-15T09:25:46.408Z,100.00
2023-04-15T09:30:52.566Z,100.00
2023-04-15T09:36:05.212Z,100.00
2023-04-15T09:41:19.772Z,100.00
2023-04-15T09:46:44.521Z,100.00
2023-04-15T09:52:03.949Z,100.00
2023-04-15T09:57:10.448Z,100.00
2023-04-15T10:02:35.733Z,100.00
2023-04-15T10:07:41.347Z,100.00
2023-04-15T10:12:45.608Z,100.00
2023-04-15T10:18:10.581Z,100.00
2023-04-15T10:23:15.364Z,100.00
2023-04-15T10:28:29.155Z,100.00
2023-04-15T10:33:36.444Z,100.00
2023-04-15T10:38:44.515Z,100.00
2023-04-15T10:44:24.111Z,100.00
2023-04-15T10:49:27.528Z,100.00
2023-04-15T10:54:33.818Z,100.00
2023-04-15T10:59:39.492Z,100.00
2023-04-15T11:05:00.091Z,100.00
2023-04-15T11:10:25.493Z,100.00
2023-04-15T11:15:30.651Z,100.00
2023-04-15T11:20:38.299Z,100.00
2023-04-15T11:25:41.958Z,100.00
2023-04-15T11:30:45.411Z,100.00
2023-04-15T11:35:54.362Z,100.00
2023-04-15T11:40:58.534Z,100.00
2023-04-15T11:46:03.830Z,100.00
2023-04-15T11:51:08.130Z,100.00
2023-04-15T11:56:22.906Z,100.00
2023-04-15T12:01:35.274Z,100.00
2023-04-15T12:06:39.290Z,100.00
2023-04-15T12:11:50.367Z,100.00
2023-04-15T12:17:05.472Z,100.00
2023-04-15T12:22:11.746Z,100.00
2023-04-15T12:27:16.707Z,100.00
2023-04-15T12:32:21.163Z,100.00
2023-04-15T12:37:24.700Z,100.00
2023-04-15T12:42:28.460Z,100.00
2023-04-15T12:47:31.866Z,100.00
2023-04-15T12:52:35.112Z,100.00
2023-04-15T12:57:38.551Z,100.00
2023-04-15T13:02:44.751Z,100.00
2023-04-15T13:07:48.305Z,99.58
2023-04-15T13:13:00.539Z,98.65
2023-04-15T13:18:08.671Z,95.88
2023-04-15T13:23:15.645Z,96.11
2023-04-15T13:28:18.982Z,92.49
2023-04-15T13:33:22.374Z,93.50
2023-04-15T13:38:29.700Z,94.57
2023-04-15T13:43:34.490Z,92.92
2023-04-15T13:48:37.889Z,91.59
2023-04-15T13:53:41.131Z,90.09
2023-04-15T13:58:44.705Z,88.98
2023-04-15T14:03:48.237Z,90.93
2023-04-15T14:08:51.878Z,90.52
2023-04-15T14:13:55.140Z,91.12
2023-04-15T14:18:59.183Z,90.87
2023-04-15T14:24:02.744Z,90.83
2023-04-15T14:29:08.442Z,91.19
2023-04-15T14:34:12.155Z,90.80
2023-04-15T14:39:15.442Z,90.74
2023-04-15T14:44:18.607Z,90.14
2023-04-15T14:49:21.982Z,89.76
2023-04-15T14:54:25.455Z,89.91
2023-04-15T14:59:28.664Z,89.54
2023-04-15T15:04:33.552Z,89.71
2023-04-15T15:09:36.986Z,89.31
2023-04-15T15:14:40.447Z,88.73
2023-04-15T15:19:43.770Z,88.69
2023-04-15T15:24:47.212Z,89.03
2023-04-15T15:29:50.673Z,88.63
2023-04-15T15:34:54.014Z,85.72
2023-04-15T15:39:57.656Z,86.12
2023-04-15T15:45:01.396Z,87.21
2023-04-15T15:50:06.247Z,87.57
2023-04-15T15:55:21.666Z,88.13
2023-04-15T16:00:25.004Z,87.17
2023-04-15T16:05:28.462Z,86.73
2023-04-15T16:10:31.814Z,86.06
2023-04-15T16:15:55.607Z,86.17
2023-04-15T16:20:59.355Z,86.75
2023-04-15T16:26:03.260Z,86.14
2023-04-15T16:31:06.600Z,85.58
2023-04-15T16:36:10.018Z,85.83
2023-04-15T16:41:16.057Z,86.08
2023-04-15T16:46:19.650Z,86.65
2023-04-15T16:51:23.319Z,87.15
2023-04-15T16:56:27.259Z,87.25
2023-04-15T17:01:31.262Z,87.17
2023-04-15T17:06:35.191Z,87.71
2023-04-15T17:11:40.734Z,88.38
2023-04-15T17:16:44.172Z,89.03
2023-04-15T17:21:47.634Z,89.53
2023-04-15T17:26:51.103Z,90.19
2023-04-15T17:31:55.658Z,90.82
2023-04-15T17:36:59.207Z,91.45
2023-04-15T17:42:05.742Z,92.18
2023-04-15T17:47:09.324Z,92.59
2023-04-15T17:52:12.892Z,93.00
2023-04-15T17:57:16.873Z,93.34
2023-04-15T18:02:31.075Z,93.40
2023-04-15T18:07:36.018Z,93.52
2023-04-15T18:12:39.696Z,93.99
2023-04-15T18:17:56.378Z,93.89
2023-04-15T18:23:22.823Z,93.75
2023-04-15T18:28:29.254Z,93.38
2023-04-15T18:33:36.115Z,93.51
2023-04-15T18:38:40.096Z,93.21
2023-04-15T18:43:43.702Z,93.40
2023-04-15T18:49:00.153Z,93.50
2023-04-15T18:54:04.337Z,93.51
2023-04-15T18:59:28.031Z,93.14
2023-04-15T19:04:52.658Z,93.28
2023-04-15T19:09:56.135Z,92.99
2023-04-15T19:14:59.623Z,92.95
2023-04-15T19:20:03.700Z,93.12
2023-04-15T19:25:07.187Z,93.30
2023-04-15T19:30:11.236Z,93.53
2023-04-15T19:35:15.123Z,93.72
2023-04-15T19:40:18.551Z,93.96
2023-04-15T19:45:21.964Z,94.14
2023-04-15T19:50:27.684Z,94.35
2023-04-15T19:55:31.134Z,94.61
2023-04-15T20:00:39.552Z,94.76
2023-04-15T20:05:46.384Z,94.72
2023-04-15T20:10:49.766Z,94.75
2023-04-15T20:15:53.204Z,95.06
2023-04-15T20:20:57.604Z,95.13
2023-04-15T20:26:01.547Z,95.02
2023-04-15T20:31:04.891Z,94.66
2023-04-15T20:36:19.105Z,94.84
2023-04-15T20:41:23.334Z,94.93
2023-04-15T20:46:27.847Z,95.16
2023-04-15T20:51:37.521Z,95.16
2023-04-15T20:56:41.067Z,95.45
2023-04-15T21:01:45.929Z,95.89
2023-04-15T21:06:49.335Z,96.07
2023-04-15T21:12:00.956Z,96.06
2023-04-15T21:17:11.525Z,96.25
2023-04-15T21:22:15.771Z,96.44
2023-04-15T21:27:19.180Z,97.02
2023-04-15T21:32:22.813Z,97.33
2023-04-15T21:37:26.128Z,97.58
2023-04-15T21:42:30.073Z,97.59
2023-04-15T21:48:04.594Z,97.54
2023-04-15T21:52:59.318Z,97.67
2023-04-15T21:58:02.834Z,97.70
2023-04-15T22:03:06.544Z,97.66
2023-04-15T22:08:10.257Z,97.64
2023-04-15T22:13:14.424Z,97.79
2023-04-15T22:18:37.946Z,98.19
2023-04-15T22:23:48.498Z,98.08
2023-04-15T22:28:55.176Z,98.06
2023-04-15T22:34:08.616Z,98.25
2023-04-15T22:39:14.365Z,98.67
2023-04-15T22:44:18.226Z,98.76
2023-04-15T22:49:35.039Z,99.00
2023-04-15T22:54:38.628Z,99.31
2023-04-15T22:59:41.867Z,99.78
2023-04-15T23:04:48.644Z,99.92
2023-04-15T23:09:52.057Z,100.00
2023-04-15T23:15:16.013Z,100.00
2023-04-15T23:20:19.624Z,100.00
2023-04-15T23:25:23.069Z,100.00
2023-04-15T23:30:26.399Z,100.00
2023-04-15T23:35:30.149Z,100.00
2023-04-15T23:40:36.534Z,100.00
2023-04-15T23:45:40.366Z,100.00
2023-04-15T23:50:43.787Z,100.00
2023-04-15T23:55:48.863Z,100.00
